createdAt,value
2018-10-02T00:00:43.192Z,69.32
2018-10-02T00:04:48.265Z,70.25
2018-10-02T00:08:53.267Z,70.50
2018-10-02T00:13:03.772Z,70.61
2018-10-02T00:17:08.761Z,71.02
2018-10-02T00:21:13.830Z,70.66
2018-10-02T00:25:18.855Z,70.81
2018-10-02T00:29:23.877Z,70.66
2018-10-02T00:33:28.901Z,71.20
2018-10-02T00:37:33.928Z,71.00
2018-10-02T00:41:38.937Z,71.17
2018-10-02T00:45:43.958Z,71.50
2018-10-02T00:49:48.968Z,71.12
2018-10-02T00:53:53.976Z,71.35
2018-10-02T00:57:59.013Z,71.76
2018-10-02T01:02:04.141Z,71.66
2018-10-02T01:06:09.193Z,71.99
2018-10-02T01:10:15.265Z,72.05
2018-10-02T01:14:20.280Z,72.10
2018-10-02T01:18:25.290Z,71.86
2018-10-02T01:22:30.297Z,72.41
2018-10-02T01:26:35.308Z,71.77
2018-10-02T01:30:40.296Z,71.91
2018-10-02T01:34:45.308Z,72.12
2018-10-02T01:38:50.339Z,72.65
2018-10-02T01:42:55.320Z,72.61
2018-10-02T01:47:00.324Z,72.83
2018-10-02T01:51:05.316Z,73.31
2018-10-02T01:55:10.289Z,72.93
2018-10-02T01:59:15.296Z,73.07
2018-10-02T02:03:20.317Z,72.38
2018-10-02T02:07:25.320Z,73.12
2018-10-02T02:11:30.331Z,72.97
2018-10-02T02:15:35.365Z,73.86
2018-10-02T02:19:41.241Z,74.32
2018-10-02T02:23:46.260Z,74.46
2018-10-02T02:27:51.237Z,74.96
2018-10-02T02:31:56.242Z,74.68
2018-10-02T02:36:01.247Z,74.95
2018-10-02T02:40:06.446Z,75.25
2018-10-02T02:44:11.472Z,75.19
2018-10-02T02:49:23.444Z,74.54
2018-10-02T02:53:28.533Z,75.18
2018-10-02T02:57:33.527Z,74.98
2018-10-02T03:01:38.556Z,75.53
2018-10-02T03:05:43.571Z,75.00
2018-10-02T03:09:48.656Z,74.63
2018-10-02T03:13:53.631Z,74.65
2018-10-02T03:17:58.629Z,74.40
2018-10-02T03:22:03.661Z,73.88
2018-10-02T03:26:08.932Z,73.68
2018-10-02T03:30:13.947Z,74.02
2018-10-02T03:34:19.926Z,74.30
2018-10-02T03:38:24.932Z,73.79
2018-10-02T03:42:29.949Z,74.20
2018-10-02T03:46:34.974Z,74.67
2018-10-02T03:50:39.996Z,74.16
2018-10-02T03:54:45.043Z,74.83
2018-10-02T03:58:50.052Z,75.01
2018-10-02T04:02:55.096Z,74.60
2018-10-02T04:07:00.102Z,74.32
2018-10-02T04:11:05.127Z,74.78
2018-10-02T04:15:10.214Z,75.40
2018-10-02T04:19:15.216Z,75.55
2018-10-02T04:23:20.289Z,75.78
2018-10-02T04:27:25.324Z,76.05
2018-10-02T04:31:30.632Z,76.28
2018-10-02T04:35:35.729Z,76.23
2018-10-02T04:39:40.731Z,76.26
2018-10-02T04:43:45.778Z,76.25
2018-10-02T04:47:53.477Z,77.70
2018-10-02T04:51:58.508Z,76.75
2018-10-02T04:56:03.766Z,75.89
2018-10-02T05:00:08.632Z,76.36
2018-10-02T05:04:13.742Z,76.39
2018-10-02T05:08:18.817Z,76.72
2018-10-02T05:12:23.821Z,76.74
2018-10-02T05:16:28.880Z,76.47
2018-10-02T05:20:33.940Z,76.81
2018-10-02T05:24:39.017Z,76.33
2018-10-02T05:28:44.033Z,77.04
2018-10-02T05:32:49.069Z,78.69
2018-10-02T05:36:54.089Z,77.77
2018-10-02T05:40:59.109Z,76.48
2018-10-02T05:45:04.838Z,75.57
2018-10-02T05:49:09.857Z,75.27
2018-10-02T05:53:14.863Z,76.32
2018-10-02T05:57:19.860Z,76.86
2018-10-02T06:01:24.929Z,76.60
2018-10-02T06:05:29.962Z,76.74
2018-10-02T06:09:35.303Z,77.47
2018-10-02T06:13:40.435Z,76.89
2018-10-02T06:17:45.561Z,76.68
2018-10-02T06:21:50.594Z,76.43
2018-10-02T06:25:55.602Z,76.71
2018-10-02T06:30:00.626Z,76.34
2018-10-02T06:34:05.673Z,76.19
2018-10-02T06:38:10.740Z,75.93
2018-10-02T06:42:15.745Z,75.38
2018-10-02T06:46:20.771Z,74.99
2018-10-02T06:50:25.858Z,74.94
2018-10-02T06:54:30.810Z,74.87
2018-10-02T06:58:35.829Z,74.57
2018-10-02T07:02:40.935Z,74.39
2018-10-02T07:06:45.984Z,74.25
2018-10-02T07:10:50.933Z,74.05
2018-10-02T07:14:56.039Z,74.12
2018-10-02T07:19:01.043Z,74.04
2018-10-02T07:23:06.117Z,73.80
2018-10-02T07:27:11.312Z,73.86
2018-10-02T07:31:16.211Z,73.38
2018-10-02T07:35:21.251Z,72.89
2018-10-02T07:39:26.321Z,73.00
2018-10-02T07:43:31.434Z,72.87
2018-10-02T07:47:36.640Z,72.49
2018-10-02T07:51:41.594Z,71.75
2018-10-02T07:55:46.613Z,72.01
2018-10-02T07:59:51.691Z,72.57
2018-10-02T08:03:56.672Z,73.50
2018-10-02T08:08:01.672Z,73.80
2018-10-02T08:12:06.792Z,74.25
2018-10-02T08:16:11.766Z,75.05
2018-10-02T08:20:16.821Z,74.60
2018-10-02T08:24:21.852Z,75.89
2018-10-02T08:28:26.881Z,76.14
2018-10-02T08:32:31.931Z,76.32
2018-10-02T08:36:36.957Z,76.90
2018-10-02T08:40:42.181Z,77.02
2018-10-02T08:44:47.575Z,77.54
2018-10-02T08:48:52.585Z,77.44
2018-10-02T08:52:57.654Z,77.76
2018-10-02T08:57:02.692Z,78.39
2018-10-02T09:01:08.420Z,78.40
2018-10-02T09:05:13.345Z,78.55
2018-10-02T09:09:18.353Z,78.24
2018-10-02T09:13:23.337Z,78.23
2018-10-02T09:17:28.360Z,78.75
2018-10-02T09:21:33.424Z,78.50
2018-10-02T09:25:38.428Z,79.23
2018-10-02T09:29:48.660Z,78.97
2018-10-02T09:33:58.844Z,79.07
2018-10-02T09:38:09.125Z,79.28
2018-10-02T09:42:19.469Z,80.37
2018-10-02T09:46:25.193Z,80.09
2018-10-02T09:50:30.276Z,79.54
2018-10-02T09:54:35.219Z,79.28
2018-10-02T09:58:40.295Z,79.58
2018-10-02T10:02:45.371Z,79.30
2018-10-02T10:06:50.286Z,79.28
2018-10-02T10:10:55.301Z,79.40
2018-10-02T10:15:00.293Z,80.49
2018-10-02T10:19:05.757Z,80.21
2018-10-02T10:23:10.772Z,80.10
2018-10-02T10:27:16.070Z,80.04
2018-10-02T10:31:21.641Z,79.12
2018-10-02T10:35:26.671Z,79.37
2018-10-02T10:39:32.806Z,79.13
2018-10-02T10:43:38.714Z,78.25
2018-10-02T10:47:43.854Z,77.41
2018-10-02T10:51:48.769Z,77.77
2018-10-02T10:55:53.779Z,77.76
2018-10-02T10:59:58.798Z,77.16
2018-10-02T11:04:03.848Z,77.26
2018-10-02T11:08:08.872Z,77.83
2018-10-02T11:12:13.944Z,76.25
2018-10-02T11:16:18.926Z,74.76
2018-10-02T11:20:28.046Z,75.20
2018-10-02T11:24:33.029Z,76.19
2018-10-02T11:28:38.032Z,75.86
2018-10-02T11:32:43.057Z,76.14
2018-10-02T11:36:48.076Z,77.13
2018-10-02T11:40:53.095Z,78.07
2018-10-02T11:44:58.190Z,79.39
2018-10-02T11:49:03.119Z,81.24
2018-10-02T11:53:08.222Z,81.60
2018-10-02T11:57:13.255Z,82.47
2018-10-02T12:01:18.339Z,81.71
2018-10-02T12:05:23.229Z,82.81
2018-10-02T12:09:28.243Z,83.33
2018-10-02T12:13:33.392Z,83.75
2018-10-02T12:17:38.281Z,84.05
2018-10-02T12:21:43.284Z,84.00
2018-10-02T12:25:48.281Z,84.70
2018-10-02T12:29:53.337Z,83.69
2018-10-02T12:33:58.336Z,84.26
2018-10-02T12:38:03.338Z,85.12
2018-10-02T12:42:08.324Z,85.90
2018-10-02T12:46:13.356Z,85.74
2018-10-02T12:50:18.374Z,86.02
2018-10-02T12:54:23.459Z,86.39
2018-10-02T12:58:28.485Z,86.36
2018-10-02T13:02:33.502Z,86.72
2018-10-02T13:06:38.626Z,87.03
2018-10-02T13:10:43.621Z,87.52
2018-10-02T13:14:48.653Z,87.53
2018-10-02T13:18:53.697Z,87.62
2018-10-02T13:22:58.751Z,88.45
2018-10-02T13:27:03.729Z,88.54
2018-10-02T13:31:08.755Z,88.73
2018-10-02T13:35:13.791Z,88.95
2018-10-02T13:39:18.853Z,88.51
2018-10-02T13:43:23.857Z,88.59
2018-10-02T13:47:28.887Z,88.52
2018-10-02T13:51:34.002Z,88.82
2018-10-02T13:55:39.031Z,88.75
2018-10-02T13:59:44.077Z,88.89
2018-10-02T14:03:49.092Z,89.04
2018-10-02T14:07:54.273Z,88.77
2018-10-02T14:11:59.289Z,89.53
2018-10-02T14:16:04.342Z,89.54
2018-10-02T14:20:09.393Z,89.54
2018-10-02T14:24:14.435Z,89.72
2018-10-02T14:28:19.462Z,90.01
2018-10-02T14:32:24.525Z,90.18
2018-10-02T14:36:29.591Z,90.77
2018-10-02T14:40:35.626Z,91.44
2018-10-02T14:44:40.664Z,91.33
2018-10-02T14:48:45.702Z,91.44
2018-10-02T14:52:50.707Z,91.64
2018-10-02T14:56:55.755Z,91.52
2018-10-02T15:01:00.757Z,91.59
2018-10-02T15:05:05.892Z,91.49
2018-10-02T15:09:10.925Z,91.64
2018-10-02T15:13:16.455Z,92.27
2018-10-02T15:17:21.583Z,92.30
2018-10-02T15:21:26.648Z,92.46
2018-10-02T15:25:31.670Z,92.27
2018-10-02T15:29:36.669Z,92.41
2018-10-02T15:33:41.706Z,92.35
2018-10-02T15:37:46.792Z,92.10
2018-10-02T15:41:51.722Z,91.35
2018-10-02T15:45:57.773Z,91.47
2018-10-02T15:50:02.813Z,90.96
2018-10-02T15:54:07.837Z,91.05
2018-10-02T15:58:12.983Z,90.56
2018-10-02T16:02:18.082Z,90.83
2018-10-02T16:06:23.171Z,90.46
2018-10-02T16:10:28.182Z,90.09
2018-10-02T16:14:33.236Z,89.50
2018-10-02T16:18:38.229Z,89.88
2018-10-02T16:22:43.413Z,89.68
2018-10-02T16:26:48.575Z,89.23
2018-10-02T16:30:53.655Z,89.49
2018-10-02T16:34:58.796Z,89.30
2018-10-02T16:39:04.797Z,89.03
2018-10-02T16:43:09.891Z,88.38
2018-10-02T16:47:15.098Z,88.14
2018-10-02T16:51:20.246Z,87.37
2018-10-02T16:55:25.303Z,87.50
2018-10-02T16:59:30.410Z,87.20
2018-10-02T17:03:35.433Z,86.58
2018-10-02T17:07:40.496Z,86.78
2018-10-02T17:11:45.536Z,86.52
2018-10-02T17:15:50.830Z,85.52
2018-10-02T17:19:55.868Z,85.35
2018-10-02T17:24:00.878Z,84.73
2018-10-02T17:28:06.009Z,84.87
2018-10-02T17:32:11.102Z,83.95
2018-10-02T17:36:16.358Z,83.86
2018-10-02T17:40:21.877Z,83.95
2018-10-02T17:44:27.033Z,83.36
2018-10-02T17:48:32.054Z,83.68
2018-10-02T17:52:37.282Z,83.47
2018-10-02T17:56:42.366Z,83.82
2018-10-02T18:00:47.460Z,84.05
2018-10-02T18:04:52.468Z,84.18
2018-10-02T18:08:57.498Z,83.89
2018-10-02T18:13:02.613Z,83.24
2018-10-02T18:17:07.641Z,83.38
2018-10-02T18:21:12.690Z,84.01
2018-10-02T18:25:17.824Z,83.82
2018-10-02T18:29:22.924Z,83.35
2018-10-02T18:33:27.940Z,83.42
2018-10-02T18:37:33.048Z,83.29
2018-10-02T18:41:38.118Z,83.09
2018-10-02T18:45:43.706Z,83.27
2018-10-02T18:49:48.846Z,83.08
2018-10-02T18:53:53.899Z,82.82
2018-10-02T18:57:59.037Z,82.57
2018-10-02T19:02:04.139Z,82.37
2018-10-02T19:06:09.146Z,82.69
2018-10-02T19:10:14.329Z,82.93
2018-10-02T19:14:20.073Z,82.88
2018-10-02T19:18:25.097Z,83.06
2018-10-02T19:22:30.136Z,83.27
2018-10-02T19:26:35.177Z,83.58
2018-10-02T19:30:45.450Z,83.06
2018-10-02T19:34:50.519Z,83.13
2018-10-02T19:38:58.390Z,83.15
2018-10-02T19:43:03.442Z,83.52
2018-10-02T19:47:08.784Z,83.01
2018-10-02T19:51:19.169Z,83.60
2018-10-02T19:55:24.214Z,83.10
2018-10-02T19:59:29.265Z,83.39
2018-10-02T20:03:34.323Z,83.17
2018-10-02T20:07:39.353Z,83.49
2018-10-02T20:11:44.392Z,83.65
2018-10-02T20:15:49.450Z,83.39
2018-10-02T20:19:54.493Z,83.39
2018-10-02T20:23:59.544Z,84.00
2018-10-02T20:28:04.730Z,83.74
2018-10-02T20:32:09.798Z,83.54
2018-10-02T20:36:14.861Z,83.91
2018-10-02T20:40:19.921Z,84.24
2018-10-02T20:44:24.962Z,83.83
2018-10-02T20:48:30.129Z,84.51
2018-10-02T20:52:35.265Z,84.46
2018-10-02T20:56:40.310Z,84.82
2018-10-02T21:00:45.429Z,85.26
2018-10-02T21:04:50.456Z,85.17
2018-10-02T21:08:55.537Z,85.05
2018-10-02T21:13:00.621Z,85.16
2018-10-02T21:17:05.662Z,85.46
2018-10-02T21:21:11.280Z,85.56
2018-10-02T21:25:16.342Z,85.74
2018-10-02T21:29:21.407Z,86.04
2018-10-02T21:33:26.490Z,85.67
2018-10-02T21:37:31.560Z,85.70
2018-10-02T21:41:36.650Z,85.77
2018-10-02T21:45:41.833Z,86.24
2018-10-02T21:49:46.910Z,86.40
2018-10-02T21:53:51.951Z,86.38
2018-10-02T21:57:56.996Z,86.86
2018-10-02T22:02:02.033Z,86.68
2018-10-02T22:06:07.516Z,86.76
2018-10-02T22:10:12.592Z,87.11
2018-10-02T22:14:17.711Z,87.18
2018-10-02T22:18:22.933Z,87.57
2018-10-02T22:22:27.950Z,87.18
2018-10-02T22:26:33.008Z,87.15
2018-10-02T22:30:38.049Z,87.97
2018-10-02T22:34:43.108Z,88.34
2018-10-02T22:38:48.327Z,88.26
2018-10-02T22:42:53.364Z,88.17
2018-10-02T22:46:58.511Z,88.37
2018-10-02T22:51:03.557Z,88.33
2018-10-02T22:55:08.645Z,88.28
2018-10-02T22:59:13.707Z,88.46
2018-10-02T23:03:18.716Z,88.64
2018-10-02T23:07:23.753Z,88.81
2018-10-02T23:11:28.813Z,88.61
2018-10-02T23:15:33.854Z,88.38
2018-10-02T23:19:38.982Z,88.34
2018-10-02T23:23:44.022Z,88.33
2018-10-02T23:27:49.327Z,88.55
2018-10-02T23:31:54.374Z,88.44
2018-10-02T23:35:59.433Z,88.00
2018-10-02T23:40:05.154Z,88.66
2018-10-02T23:44:10.226Z,88.55
2018-10-02T23:48:15.261Z,88.50
2018-10-02T23:52:20.332Z,88.35
2018-10-02T23:56:25.366Z,88.31
